Time;durP1;ratioP1;P1;durP2;ratioP2;P2;SDS_P1;SDS_P2;PMS_P1;PMS_P2;Temp;Humidity;BMP_temperature;BMP_pressure;BME280_temperature;BME280_humidity;BME280_pressure;Samples;Min_cycle;Max_cycle;Signal;HPM_P1;HPM_P2
2022/07/14 00:00:44;;;;;;;5.95;3.80;;;;;;;24.64;62.60;98948.31;4999073;28;20112;-59
2022/07/14 00:03:09;;;;;;;6.03;3.47;;;;;;;24.59;62.80;98950.00;4999576;28;20788;-59
2022/07/14 00:05:35;;;;;;;5.88;3.55;;;;;;;24.34;62.63;98914.56;4997718;28;20122;-58
2022/07/14 00:08:01;;;;;;;5.40;3.53;;;;;;;24.55;63.00;98937.19;4997733;28;20027;-59
2022/07/14 00:10:27;;;;;;;5.93;4.05;;;;;;;24.57;62.94;98939.63;4999597;28;20579;-59
2022/07/14 00:12:52;;;;;;;5.57;3.80;;;;;;;24.51;63.11;98937.84;4993483;28;20030;-60
2022/07/14 00:15:18;;;;;;;5.75;3.85;;;;;;;24.51;63.60;98943.94;4998920;28;20066;-59
2022/07/14 00:17:44;;;;;;;7.25;3.88;;;;;;;24.28;63.63;98912.84;4996425;28;20022;-59
2022/07/14 00:20:10;;;;;;;6.50;3.50;;;;;;;24.35;63.74;98949.91;4998941;28;20022;-59
2022/07/14 00:22:36;;;;;;;5.25;3.50;;;;;;;24.33;63.56;98950.16;4982618;28;20048;-59
2022/07/14 00:25:01;;;;;;;5.90;3.55;;;;;;;24.30;63.59;98929.34;4997784;28;20429;-59
2022/07/14 00:27:26;;;;;;;7.00;3.78;;;;;;;24.29;63.99;98956.94;4990776;28;20072;-59
2022/07/14 00:29:53;;;;;;;5.90;3.80;;;;;;;24.25;64.45;98949.66;4999167;28;20034;-59
2022/07/14 00:32:18;;;;;;;7.57;3.95;;;;;;;24.15;64.95;98932.41;4998791;28;20049;-59
2022/07/14 00:34:43;;;;;;;6.38;3.97;;;;;;;24.22;64.83;98937.63;4980684;28;20723;-59
2022/07/14 00:37:09;;;;;;;6.72;4.10;;;;;;;24.17;64.88;98937.50;4997301;28;20027;-59
2022/07/14 00:42:32;;;;;;;6.07;3.90;;;;;;;24.19;65.06;98943.41;5002508;28;20376;-59
2022/07/14 00:44:59;;;;;;;7.03;3.85;;;;;;;24.16;65.24;98949.16;5002763;28;20038;-60
2022/07/14 00:47:25;;;;;;;5.60;4.00;;;;;;;24.26;65.04;98938.00;5002672;28;20030;-59
2022/07/14 00:49:54;;;;;;;5.43;3.92;;;;;;;24.09;65.53;98935.97;4982710;28;20058;-59
2022/07/14 00:52:21;;;;;;;5.57;3.42;;;;;;;24.16;64.94;98944.66;5019535;28;20026;-59
2022/07/14 00:54:47;;;;;;;5.97;4.03;;;;;;;23.93;65.53;98899.41;4999277;28;20120;-58
2022/07/14 00:57:12;;;;;;;6.65;3.97;;;;;;;23.86;66.02;98917.25;5004748;28;20714;-59
2022/07/14 00:59:38;;;;;;;7.15;4.00;;;;;;;24.07;65.42;98945.19;5002697;28;20020;-58
2022/07/14 01:02:03;;;;;;;6.68;3.85;;;;;;;24.06;65.87;98939.09;4991324;28;20018;-58
2022/07/14 01:04:29;;;;;;;6.60;4.07;;;;;;;23.80;65.56;98897.72;4985736;28;20052;-58
2022/07/14 01:06:54;;;;;;;5.80;4.13;;;;;;;23.89;65.62;98907.00;5000541;28;20516;-60
2022/07/14 01:09:19;;;;;;;6.07;4.20;;;;;;;24.04;65.70;98929.69;4996739;28;20034;-58
2022/07/14 01:11:45;;;;;;;6.25;4.00;;;;;;;24.08;65.77;98930.91;5002273;28;20030;-59
2022/07/14 01:14:10;;;;;;;5.43;3.97;;;;;;;24.08;65.46;98930.91;5002697;28;20117;-60
2022/07/14 01:16:35;;;;;;;7.00;4.07;;;;;;;24.09;65.65;98929.84;5003064;28;20501;-59
2022/07/14 01:19:01;;;;;;;6.70;4.40;;;;;;;24.04;65.78;98916.44;5005414;28;20025;-59
2022/07/14 01:21:26;;;;;;;5.43;3.50;;;;;;;24.03;65.29;98920.94;5001608;28;20745;-61
2022/07/14 01:23:52;;;;;;;5.28;3.85;;;;;;;24.07;65.37;98924.75;5002145;28;20057;-58
2022/07/14 01:26:17;;;;;;;6.22;4.35;;;;;;;24.08;65.19;98917.63;4993677;28;20014;-60
2022/07/14 01:28:42;;;;;;;5.78;3.97;;;;;;;24.11;65.01;98909.19;5001985;28;20487;-61
2022/07/14 01:31:08;;;;;;;5.68;4.18;;;;;;;24.15;65.15;98911.16;5002444;28;20037;-59
2022/07/14 01:33:33;;;;;;;6.88;4.40;;;;;;;24.00;64.96;98884.19;5002458;28;20033;-58
2022/07/14 01:35:58;;;;;;;5.40;3.55;;;;;;;24.22;64.63;98910.25;4998393;28;20095;-59
2022/07/14 01:38:24;;;;;;;8.35;3.95;;;;;;;24.21;65.02;98921.94;4996645;28;20048;-59
2022/07/14 01:40:49;;;;;;;7.18;3.72;;;;;;;24.17;65.07;98913.59;5008996;28;20017;-59
2022/07/14 01:43:14;;;;;;;5.65;3.88;;;;;;;24.20;65.14;98918.44;4999468;28;20472;-59
2022/07/14 01:45:40;;;;;;;5.43;3.88;;;;;;;23.93;65.67;98902.06;4993867;28;20081;-59
2022/07/14 01:48:05;;;;;;;7.55;4.22;;;;;;;24.00;66.16;98908.09;4999685;28;20453;-60
2022/07/14 01:50:31;;;;;;;6.15;3.97;;;;;;;24.08;65.85;98907.78;5018143;28;20085;-58
2022/07/14 01:52:56;;;;;;;5.68;4.00;;;;;;;24.13;65.89;98904.44;4998032;28;20587;-59
2022/07/14 01:55:22;;;;;;;5.72;3.72;;;;;;;24.12;66.44;98901.00;5002862;28;20026;-59
2022/07/14 01:57:47;;;;;;;5.97;4.05;;;;;;;24.17;66.37;98898.47;5001115;28;20030;-60
2022/07/14 02:00:13;;;;;;;6.28;3.70;;;;;;;24.04;66.16;98863.31;4994370;28;20029;-58
2022/07/14 02:02:38;;;;;;;6.40;3.83;;;;;;;24.22;66.14;98895.13;5017828;28;20060;-59
2022/07/14 02:05:04;;;;;;;5.75;3.85;;;;;;;24.27;65.43;98891.78;4985354;28;20026;-58
2022/07/14 02:07:29;;;;;;;5.30;3.80;;;;;;;24.08;65.38;98865.31;5000421;28;20575;-59
2022/07/14 02:12:39;;;;;;;6.30;3.83;;;;;;;24.20;65.67;98896.41;5002342;28;20547;-60
2022/07/14 02:15:05;;;;;;;5.93;3.70;;;;;;;24.18;65.78;98886.78;4984320;28;20105;-59
2022/07/14 02:17:31;;;;;;;6.70;4.03;;;;;;;24.15;65.88;98886.47;4979851;28;20421;-59
2022/07/14 02:19:56;;;;;;;6.20;3.97;;;;;;;24.13;65.82;98888.50;5014253;28;20014;-59
2022/07/14 02:22:21;;;;;;;5.38;3.72;;;;;;;24.14;66.12;98887.50;5015988;28;20102;-59
2022/07/14 02:24:47;;;;;;;6.35;3.88;;;;;;;24.08;66.70;98878.59;5002202;28;20034;-59
2022/07/14 02:27:12;;;;;;;5.95;3.78;;;;;;;24.05;66.83;98878.22;4998493;28;20459;-60
2022/07/14 02:29:38;;;;;;;5.63;4.15;;;;;;;23.83;66.61;98846.84;5000875;28;20034;-60
2022/07/14 02:32:04;;;;;;;5.60;4.10;;;;;;;24.09;67.58;98887.34;5017440;28;20018;-59
2022/07/14 02:34:29;;;;;;;6.30;4.22;;;;;;;23.97;68.37;98885.47;5001315;28;20442;-59
2022/07/14 02:36:54;;;;;;;6.72;3.88;;;;;;;23.93;68.79;98891.44;4998885;28;20117;-59
2022/07/14 02:39:20;;;;;;;6.35;3.78;;;;;;;23.85;68.13;98889.09;5002267;28;20025;-58
2022/07/14 02:41:45;;;;;;;6.10;4.00;;;;;;;23.61;67.15;98857.91;5014875;28;20033;-59
2022/07/14 02:44:10;;;;;;;5.97;3.58;;;;;;;23.76;67.09;98885.91;5017200;28;20125;-59
2022/07/14 02:46:36;;;;;;;5.90;3.90;;;;;;;23.81;66.72;98885.28;5010700;28;20168;-59
2022/07/14 02:49:03;;;;;;;5.85;3.95;;;;;;;23.63;66.10;98852.38;5001131;28;20104;-61
2022/07/14 02:51:28;;;;;;;7.00;3.90;;;;;;;23.78;65.84;98879.38;4995818;28;20489;-60
2022/07/14 02:53:54;;;;;;;5.78;4.05;;;;;;;23.84;65.65;98880.34;4998567;28;20026;-60
2022/07/14 02:56:19;;;;;;;5.90;3.88;;;;;;;23.66;66.24;98859.13;4998187;28;20026;-59
2022/07/14 02:58:46;;;;;;;5.82;3.83;;;;;;;23.84;66.02;98885.66;4994588;28;20023;-59
2022/07/14 03:01:11;;;;;;;5.75;4.05;;;;;;;23.82;66.18;98884.25;4997328;28;20028;-59
2022/07/14 03:03:37;;;;;;;8.63;4.43;;;;;;;23.81;66.29;98882.63;5001020;28;20025;-59
2022/07/14 03:06:17;;;;;;;7.20;4.50;;;;;;;23.82;66.43;98876.28;5000717;28;20408;-59
2022/07/14 03:08:43;;;;;;;6.95;4.10;;;;;;;23.66;67.03;98883.81;5008620;28;20036;-61
2022/07/14 03:11:08;;;;;;;5.82;3.92;;;;;;;23.64;66.97;98883.22;4999988;28;20034;-59
2022/07/14 03:13:37;;;;;;;7.35;4.35;;;;;;;23.64;66.65;98887.69;5001163;28;20428;-60
2022/07/14 03:16:04;;;;;;;6.87;3.77;;;;;;;23.60;67.08;98888.16;4999342;28;20334;-59
2022/07/14 03:18:29;;;;;;;7.35;4.10;;;;;;;23.62;67.37;98879.97;4978784;28;20034;-59
2022/07/14 03:20:55;;;;;;;6.00;3.90;;;;;;;23.73;67.55;98889.84;4999100;28;20049;-59
2022/07/14 03:23:21;;;;;;;5.60;3.83;;;;;;;23.69;67.28;98883.34;4996770;28;20038;-60
2022/07/14 03:25:47;;;;;;;6.65;3.80;;;;;;;23.68;67.62;98894.19;5000110;28;20030;-59
2022/07/14 03:28:13;;;;;;;5.90;3.85;;;;;;;23.68;68.44;98899.50;4994771;28;20554;-59
2022/07/14 03:30:39;;;;;;;6.25;4.07;;;;;;;23.65;68.20;98892.78;4989876;28;20035;-59
2022/07/14 03:33:04;;;;;;;5.30;3.70;;;;;;;23.57;68.69;98888.59;4999154;28;20022;-59
2022/07/14 03:35:30;;;;;;;7.65;4.10;;;;;;;23.47;69.04;98885.63;4996917;28;20022;-58
2022/07/14 03:37:55;;;;;;;6.15;3.88;;;;;;;23.52;69.07;98887.66;4999617;28;20428;-58
2022/07/14 03:40:21;;;;;;;5.70;3.67;;;;;;;23.50;68.76;98890.50;4995859;28;20018;-58
2022/07/14 03:42:46;;;;;;;5.78;4.10;;;;;;;23.53;68.34;98892.72;5000397;28;20030;-58
2022/07/14 03:45:12;;;;;;;6.35;3.88;;;;;;;23.36;68.55;98857.19;5000814;28;20549;-61
2022/07/14 03:47:37;;;;;;;5.15;3.92;;;;;;;23.53;68.91;98889.25;4990461;28;20512;-59
2022/07/14 03:50:03;;;;;;;7.15;4.25;;;;;;;23.45;69.86;98889.56;5000597;28;20030;-59
2022/07/14 03:52:29;;;;;;;7.93;4.22;;;;;;;23.26;69.44;98867.53;4989597;28;20029;-59
2022/07/14 03:54:54;;;;;;;6.07;4.07;;;;;;;23.23;70.77;98890.78;5000210;28;20433;-57
2022/07/14 03:57:19;;;;;;;8.52;4.00;;;;;;;23.23;70.81;98890.78;4999386;28;20030;-59
2022/07/14 03:59:45;;;;;;;5.78;4.20;;;;;;;23.25;69.87;98881.81;5000269;28;20056;-59
2022/07/14 04:02:11;;;;;;;6.18;4.20;;;;;;;23.26;68.99;98876.31;4998906;28;20116;-59
2022/07/14 04:04:37;;;;;;;6.53;4.00;;;;;;;23.35;68.51;98888.25;5000377;28;20022;-59
2022/07/14 04:07:04;;;;;;;7.35;4.00;;;;;;;23.40;68.85;98890.22;4992017;28;20451;-59
2022/07/14 04:09:29;;;;;;;6.25;4.03;;;;;;;23.47;68.86;98892.81;4994594;28;20025;-59
2022/07/14 04:11:55;;;;;;;5.80;4.10;;;;;;;23.38;69.46;98894.94;5001987;28;20121;-58
2022/07/14 04:14:20;;;;;;;5.13;3.85;;;;;;;23.47;69.21;98898.09;4985467;28;20124;-61
2022/07/14 04:16:46;;;;;;;5.35;3.95;;;;;;;23.40;69.29;98892.88;5002945;28;20037;-62
2022/07/14 04:19:11;;;;;;;7.20;3.97;;;;;;;23.44;69.26;98891.41;5003678;28;20029;-61
2022/07/14 04:21:36;;;;;;;7.25;4.38;;;;;;;23.39;69.11;98900.03;4996162;28;20545;-59
2022/07/14 04:24:03;;;;;;;5.63;3.90;;;;;;;23.40;68.88;98887.56;4998332;28;20034;-59
2022/07/14 04:26:29;;;;;;;7.72;4.15;;;;;;;23.32;68.41;98856.03;5003275;28;20511;-60
2022/07/14 04:28:55;;;;;;;5.45;4.03;;;;;;;23.46;69.11;98884.03;5017600;28;20049;-60
2022/07/14 04:31:20;;;;;;;6.95;3.92;;;;;;;23.50;68.68;98897.69;5003065;28;20053;-59
2022/07/14 04:33:46;;;;;;;5.30;3.67;;;;;;;23.51;68.42;98878.88;4999196;28;20370;-60
2022/07/14 04:36:11;;;;;;;5.95;3.95;;;;;;;23.51;68.76;98886.00;5003270;28;20213;-58
2022/07/14 04:38:37;;;;;;;5.70;3.67;;;;;;;23.42;68.38;98865.09;5001426;28;20103;-60
2022/07/14 04:41:02;;;;;;;5.30;3.30;;;;;;;23.48;68.58;98892.59;5018070;28;20519;-59
2022/07/14 04:43:28;;;;;;;6.28;4.13;;;;;;;23.55;68.18;98880.06;5003623;28;20033;-59
2022/07/14 04:45:53;;;;;;;5.55;3.80;;;;;;;23.66;67.67;98893.63;5007966;28;20100;-59
2022/07/14 04:48:19;;;;;;;5.65;4.10;;;;;;;23.50;68.55;98860.53;5030576;28;20562;-59
2022/07/14 04:53:28;;;;;;;5.90;3.80;;;;;;;23.66;68.25;98888.31;5001841;28;20040;-58
2022/07/14 04:55:53;;;;;;;5.85;4.00;;;;;;;23.59;68.48;98885.72;5020377;28;20026;-58
2022/07/14 04:58:19;;;;;;;5.82;4.07;;;;;;;23.61;68.97;98879.16;5002183;28;20025;-58
2022/07/14 05:00:44;;;;;;;7.28;4.38;;;;;;;23.73;68.80;98889.84;5001024;28;20377;-58
2022/07/14 05:03:10;;;;;;;6.13;4.18;;;;;;;23.70;68.50;98882.31;5003825;28;20022;-57
2022/07/14 05:05:35;;;;;;;6.13;4.03;;;;;;;23.55;69.16;98858.81;4998028;28;20781;-58
2022/07/14 05:08:01;;;;;;;5.65;3.95;;;;;;;23.56;69.46;98867.59;4985434;28;20025;-58
2022/07/14 05:10:26;;;;;;;6.55;4.05;;;;;;;23.29;69.78;98848.50;5000292;28;20030;-58
2022/07/14 05:12:52;;;;;;;5.97;4.03;;;;;;;23.28;69.39;98858.31;4997837;28;20022;-58
2022/07/14 05:15:17;;;;;;;6.85;4.43;;;;;;;23.48;69.46;98881.97;5015020;28;20045;-59
2022/07/14 05:17:43;;;;;;;6.47;4.32;;;;;;;23.49;69.55;98883.59;4999277;28;20361;-58
2022/07/14 05:20:10;;;;;;;6.22;4.13;;;;;;;23.48;70.22;98881.97;5001744;28;20516;-59
2022/07/14 05:22:37;;;;;;;6.53;4.32;;;;;;;23.39;70.11;98878.00;5018238;28;20030;-59
2022/07/14 05:25:12;;;;;;;6.88;4.15;;;;;;;23.49;71.03;98890.72;5002994;28;20173;-63
2022/07/14 05:27:38;;;;;;;6.30;4.30;;;;;;;23.46;70.85;98891.19;4996214;28;20702;-59
2022/07/14 05:30:08;;;;;;;6.57;4.25;;;;;;;23.42;70.38;98891.63;4998983;28;20455;-59
2022/07/14 05:32:35;;;;;;;8.60;4.85;;;;;;;23.44;70.87;98882.63;4986236;28;20519;-60
2022/07/14 05:35:00;;;;;;;8.00;4.55;;;;;;;23.39;71.19;98876.16;4986239;28;20120;-58
2022/07/14 05:37:26;;;;;;;6.75;4.15;;;;;;;23.46;71.12;98894.66;5001200;28;20116;-59
2022/07/14 05:39:51;;;;;;;7.15;4.03;;;;;;;23.46;70.40;98885.88;5005915;28;20273;-58
2022/07/14 05:42:20;;;;;;;8.27;4.22;;;;;;;23.54;70.43;98896.19;5005301;28;20116;-59
2022/07/14 05:44:46;;;;;;;9.70;4.40;;;;;;;23.13;70.07;98826.06;5001995;28;20028;-59
2022/07/14 05:47:11;;;;;;;6.20;4.13;;;;;;;23.64;70.77;98893.00;5001786;28;20029;-60
2022/07/14 05:49:39;;;;;;;6.57;4.05;;;;;;;23.61;70.31;98888.97;4991124;28;20025;-60
2022/07/14 05:52:05;;;;;;;6.93;4.30;;;;;;;23.52;71.55;98887.66;5001875;28;20044;-58
2022/07/14 05:54:31;;;;;;;7.03;4.22;;;;;;;23.55;70.49;98882.69;5001659;28;20101;-59
2022/07/14 05:56:56;;;;;;;6.32;4.65;;;;;;;23.73;70.12;98896.97;4983617;28;20033;-59
2022/07/14 05:59:22;;;;;;;7.38;4.20;;;;;;;23.62;70.04;98890.59;5000078;28;20021;-59
2022/07/14 06:01:47;;;;;;;6.55;4.28;;;;;;;23.58;70.61;98892.88;5012869;28;20080;-60
2022/07/14 06:04:12;;;;;;;6.32;4.53;;;;;;;23.75;70.37;98894.94;4999820;28;20396;-61
2022/07/14 06:06:38;;;;;;;8.35;4.00;;;;;;;23.78;69.63;98897.13;5001874;28;20021;-60
2022/07/14 06:09:04;;;;;;;7.57;4.50;;;;;;;23.73;69.69;98891.66;5000726;28;20465;-60
2022/07/14 06:11:29;;;;;;;6.18;4.38;;;;;;;23.73;69.62;98897.81;5002027;28;20819;-59
2022/07/14 06:13:55;;;;;;;6.65;4.43;;;;;;;23.81;69.23;98898.56;5001213;28;20032;-60
2022/07/14 06:16:21;;;;;;;8.52;4.28;;;;;;;23.81;69.13;98893.25;5001253;28;20444;-59
2022/07/14 06:18:46;;;;;;;6.50;4.00;;;;;;;23.86;68.24;98899.50;4999722;28;20054;-60
2022/07/14 06:21:11;;;;;;;6.45;4.30;;;;;;;23.98;67.53;98891.56;5001584;28;20026;-59
2022/07/14 06:23:37;;;;;;;7.55;4.85;;;;;;;24.01;67.31;98895.66;5000576;28;20028;-59
2022/07/14 06:26:10;;;;;;;9.25;4.55;;;;;;;24.12;67.34;98878.94;5001138;28;20556;-59
2022/07/14 06:28:35;;;;;;;7.15;4.35;;;;;;;24.12;66.68;98881.59;4998171;28;20141;-60
2022/07/14 06:31:01;;;;;;;6.47;4.30;;;;;;;24.18;65.99;98891.31;5002454;28;20109;-59
2022/07/14 06:33:26;;;;;;;5.72;4.28;;;;;;;24.11;65.78;98888.75;4993735;28;20079;-61
2022/07/14 06:35:51;;;;;;;6.68;4.55;;;;;;;24.17;66.74;98893.16;5000702;28;20730;-59
2022/07/14 06:38:17;;;;;;;6.65;4.50;;;;;;;24.07;66.38;98884.91;4993852;28;20080;-59
2022/07/14 06:40:42;;;;;;;6.95;4.60;;;;;;;23.99;65.66;98875.44;4999272;28;20026;-61
2022/07/14 06:43:08;;;;;;;7.07;4.57;;;;;;;24.12;65.91;98895.69;4990936;28;20031;-60
2022/07/14 06:45:34;;;;;;;8.02;4.05;;;;;;;24.17;66.14;98881.72;4997188;28;20037;-59
2022/07/14 06:47:59;;;;;;;9.63;4.22;;;;;;;24.30;65.77;98881.53;5000372;28;20539;-59
2022/07/14 06:50:25;;;;;;;7.60;4.50;;;;;;;24.41;66.49;98900.41;4998951;28;20420;-59
2022/07/14 06:52:50;;;;;;;6.55;4.60;;;;;;;24.39;65.86;98890.00;4998942;28;20033;-59
2022/07/14 06:55:16;;;;;;;6.72;4.55;;;;;;;24.59;65.50;98894.19;4993238;28;20022;-60
2022/07/14 06:57:41;;;;;;;11.18;4.90;;;;;;;24.52;64.81;98891.63;4996014;28;20097;-64
2022/07/14 07:00:08;;;;;;;7.72;4.22;;;;;;;24.35;64.92;98852.44;5002143;28;20025;-59
2022/07/14 07:02:37;;;;;;;6.60;3.97;;;;;;;24.34;65.36;98860.63;5001304;28;20025;-60
2022/07/14 07:07:48;;;;;;;5.85;4.18;;;;;;;24.67;65.70;98899.19;4993775;28;20382;-58
2022/07/14 07:10:13;;;;;;;6.10;4.40;;;;;;;24.51;64.15;98866.06;4998465;28;20078;-60
2022/07/14 07:12:39;;;;;;;8.07;4.30;;;;;;;24.54;64.83;98892.25;4993706;28;20410;-59
2022/07/14 07:15:05;;;;;;;6.32;4.40;;;;;;;24.48;65.59;98893.94;4999708;28;20025;-60
2022/07/14 07:17:30;;;;;;;6.55;4.22;;;;;;;24.39;66.31;98897.97;4991518;28;20032;-60
2022/07/14 07:19:56;;;;;;;6.55;4.47;;;;;;;24.29;65.60;98881.75;4983570;28;20026;-59
2022/07/14 07:22:21;;;;;;;7.70;4.32;;;;;;;24.39;66.62;98895.31;5028433;28;20676;-60
2022/07/14 07:24:46;;;;;;;13.73;4.80;;;;;;;24.16;66.58;98858.84;5000784;28;20491;-60
2022/07/14 07:27:12;;;;;;;6.47;4.53;;;;;;;24.16;66.32;98874.78;5000897;28;20018;-59
2022/07/14 07:29:37;;;;;;;7.82;4.70;;;;;;;24.17;66.09;98900.31;5000454;28;20585;-59
2022/07/14 07:32:03;;;;;;;6.32;4.43;;;;;;;24.07;66.91;98861.00;4993661;28;20057;-60
2022/07/14 07:34:28;;;;;;;7.53;4.93;;;;;;;24.23;66.45;98862.22;4996246;28;20693;-59
2022/07/14 07:36:54;;;;;;;7.20;4.32;;;;;;;24.22;65.48;98851.81;4999371;28;20022;-59
2022/07/14 07:39:19;;;;;;;6.88;4.28;;;;;;;24.47;65.46;98876.34;4990392;28;20527;-59
2022/07/14 07:41:45;;;;;;;7.45;4.53;;;;;;;24.48;66.77;98885.97;5015830;28;20461;-61
2022/07/14 07:44:10;;;;;;;6.70;4.60;;;;;;;24.21;66.43;98845.69;4980425;28;20522;-59
2022/07/14 07:46:36;;;;;;;7.10;4.60;;;;;;;24.36;66.26;98869.97;4993483;28;20026;-59
2022/07/14 07:49:01;;;;;;;6.25;4.40;;;;;;;24.50;66.46;98880.41;4981435;28;20100;-60
2022/07/14 07:51:26;;;;;;;5.95;4.13;;;;;;;24.27;66.42;98844.78;4999453;28;20018;-59
2022/07/14 07:53:52;;;;;;;5.80;4.18;;;;;;;24.24;66.29;98839.94;4999719;28;20635;-59
2022/07/14 07:56:17;;;;;;;7.38;4.28;;;;;;;24.48;66.02;98872.66;5000065;28;20036;-60
2022/07/14 07:58:43;;;;;;;6.03;4.30;;;;;;;24.60;65.96;98866.59;4989881;28;20041;-59
2022/07/14 08:01:09;;;;;;;5.43;4.15;;;;;;;24.45;65.98;98853.72;5001147;28;20032;-59
2022/07/14 08:03:35;;;;;;;6.45;4.35;;;;;;;24.51;66.13;98866.88;4999566;28;20026;-59
2022/07/14 08:06:00;;;;;;;6.88;4.43;;;;;;;24.51;66.70;98869.53;5000400;28;20113;-62
2022/07/14 08:08:25;;;;;;;8.70;4.40;;;;;;;24.55;66.10;98864.59;4998841;28;20044;-61
2022/07/14 08:10:51;;;;;;;6.10;4.25;;;;;;;24.56;66.02;98875.00;5000848;28;20396;-61
2022/07/14 08:13:16;;;;;;;9.23;4.53;;;;;;;24.62;66.83;98857.31;4996146;28;20022;-59
2022/07/14 08:15:42;;;;;;;5.70;4.50;;;;;;;24.55;66.55;98861.94;5000087;28;20036;-60
2022/07/14 08:18:07;;;;;;;6.13;4.50;;;;;;;24.35;67.12;98863.06;5009289;28;20030;-59
2022/07/14 08:20:33;;;;;;;8.00;4.20;;;;;;;24.44;67.47;98860.06;4999741;28;20492;-62
2022/07/14 08:22:59;;;;;;;6.63;4.25;;;;;;;24.44;66.92;98860.06;4999376;28;20461;-59
2022/07/14 08:25:24;;;;;;;6.70;4.18;;;;;;;24.45;66.70;98856.38;4996719;28;20037;-60
2022/07/14 08:27:51;;;;;;;7.13;4.05;;;;;;;24.54;66.68;98857.69;4995691;28;20022;-59
2022/07/14 08:30:16;;;;;;;7.35;4.53;;;;;;;24.61;65.96;98858.38;5000200;28;20789;-61
2022/07/14 08:32:44;;;;;;;6.25;4.30;;;;;;;24.51;66.61;98864.22;4997002;28;20022;-59
2022/07/14 08:35:12;;;;;;;8.05;4.80;;;;;;;24.46;67.48;98868.59;4992407;28;20026;-59
2022/07/14 08:37:38;;;;;;;7.90;4.57;;;;;;;24.47;67.50;98856.94;4998739;28;20072;-59
2022/07/14 08:40:15;;;;;;;9.15;4.78;;;;;;;24.54;67.19;98871.78;4992392;28;20026;-61
2022/07/14 08:42:46;;;;;;;7.65;4.15;;;;;;;24.71;66.37;98871.91;5012334;28;20029;-61
2022/07/14 08:45:17;;;;;;;8.55;4.25;;;;;;;24.58;67.08;98872.13;4993982;28;20034;-61
2022/07/14 08:47:42;;;;;;;7.18;4.95;;;;;;;24.74;66.28;98860.00;4995596;28;20586;-60
2022/07/14 08:50:11;;;;;;;7.30;4.47;;;;;;;24.70;65.93;98850.88;4999419;28;20034;-61
2022/07/14 08:52:37;;;;;;;7.28;4.65;;;;;;;24.74;65.58;98866.13;4989905;28;20389;-60
2022/07/14 08:55:03;;;;;;;8.07;4.90;;;;;;;24.73;65.79;98861.88;4999698;28;20037;-59
2022/07/14 08:57:30;;;;;;;6.93;4.55;;;;;;;24.85;66.32;98871.69;5001964;28;20259;-60
2022/07/14 08:59:56;;;;;;;7.38;4.65;;;;;;;24.63;65.56;98836.91;5000157;28;20416;-60
2022/07/14 09:02:22;;;;;;;7.40;4.80;;;;;;;24.89;65.28;98870.19;5003307;28;20041;-62
2022/07/14 09:04:47;;;;;;;6.50;4.60;;;;;;;24.84;65.49;98857.56;5000449;28;20021;-61
2022/07/14 09:07:33;;;;;;;6.80;4.85;;;;;;;24.88;65.68;98868.53;4997094;28;20512;-61
2022/07/14 09:10:10;;;;;;;6.90;4.70;;;;;;;24.85;65.92;98864.50;4999696;28;20180;-61
2022/07/14 09:12:37;;;;;;;6.97;4.60;;;;;;;24.94;65.10;98860.47;5001611;28;20350;-62
2022/07/14 09:17:56;;;;;;;7.28;4.60;;;;;;;24.98;64.95;98852.03;5000039;28;20454;-60
2022/07/14 09:20:28;;;;;;;7.82;4.65;;;;;;;24.84;64.80;98854.91;5002708;28;20437;-59
2022/07/14 09:22:58;;;;;;;6.55;4.57;;;;;;;24.84;65.49;98852.25;4997341;28;20107;-59
2022/07/14 09:25:25;;;;;;;7.03;4.90;;;;;;;24.88;65.67;98855.25;4986010;28;20033;-59
2022/07/14 09:27:50;;;;;;;5.60;4.38;;;;;;;24.88;65.02;98848.09;5002077;28;20436;-60
2022/07/14 09:30:16;;;;;;;10.40;5.13;;;;;;;24.79;65.18;98832.72;4998123;28;20084;-60
2022/07/14 09:32:46;;;;;;;9.65;4.72;;;;;;;24.78;65.26;98823.94;5001641;28;20018;-59
2022/07/14 09:35:13;;;;;;;8.43;5.13;;;;;;;24.93;63.62;98850.88;4994863;28;20033;-59
2022/07/14 09:37:39;;;;;;;6.60;4.35;;;;;;;24.89;61.91;98847.03;4997422;28;20010;-59
2022/07/14 09:40:07;;;;;;;6.53;4.35;;;;;;;24.53;63.50;98784.28;5000492;28;20115;-59
2022/07/14 09:42:59;;;;;;;7.55;4.25;;;;;;;25.04;64.91;98849.22;5001083;28;20037;-60
2022/07/14 09:45:31;;;;;;;7.25;5.07;;;;;;;24.92;64.57;98849.25;5015307;28;20025;-61
2022/07/14 09:48:03;;;;;;;7.82;4.53;;;;;;;24.99;64.05;98854.47;5015210;28;20361;-62
2022/07/14 09:50:31;;;;;;;5.97;4.43;;;;;;;25.02;63.40;98851.31;4999678;28;20513;-59
2022/07/14 09:52:57;;;;;;;6.60;4.63;;;;;;;24.94;64.24;98857.00;5001601;28;20388;-60
2022/07/14 09:55:22;;;;;;;8.35;4.60;;;;;;;25.07;65.57;98853.28;5001721;28;20103;-59
2022/07/14 09:57:48;;;;;;;7.85;4.63;;;;;;;25.22;65.34;98855.47;5002355;28;20886;-59
2022/07/14 10:00:19;;;;;;;6.57;4.80;;;;;;;25.19;65.55;98853.25;5004508;28;20025;-60
2022/07/14 10:02:45;;;;;;;6.15;4.75;;;;;;;25.18;66.44;98860.44;4999143;28;20026;-60
2022/07/14 10:05:12;;;;;;;6.97;4.50;;;;;;;25.20;66.21;98858.34;5001896;28;20686;-59
2022/07/14 10:07:40;;;;;;;9.00;5.10;;;;;;;25.27;66.05;98852.94;4998120;28;20033;-60
2022/07/14 10:10:09;;;;;;;7.93;5.25;;;;;;;25.34;65.98;98848.31;4998304;28;20033;-60
2022/07/14 10:12:36;;;;;;;;;;;;;;;25.35;65.25;98847.25;4986333;28;20324;-61
2022/07/14 10:15:04;;;;;;;7.43;4.85;;;;;;;25.31;64.52;98841.56;5001813;28;19909;-59
2022/07/14 10:17:31;;;;;;;8.02;4.93;;;;;;;25.33;64.66;98833.38;5002897;28;20022;-61
2022/07/14 10:19:57;;;;;;;6.00;4.40;;;;;;;25.40;64.60;98835.91;5002430;28;20041;-60
2022/07/14 10:22:23;;;;;;;7.80;4.80;;;;;;;25.20;64.38;98799.81;4996549;28;20355;-60
2022/07/14 10:24:52;;;;;;;7.00;4.95;;;;;;;25.27;65.65;98803.19;4998829;28;20018;-59
2022/07/14 10:27:18;;;;;;;7.30;4.38;;;;;;;25.48;64.32;98822.19;5000761;28;20101;-61
2022/07/14 10:29:49;;;;;;;8.07;4.72;;;;;;;25.50;62.99;98828.09;4997984;28;20025;-60
2022/07/14 10:32:24;;;;;;;8.65;4.70;;;;;;;25.41;63.75;98793.09;5001273;28;20033;-60
2022/07/14 10:35:01;;;;;;;8.07;4.93;;;;;;;25.78;64.00;98811.34;5018158;28;20026;-60
2022/07/14 10:37:50;;;;;;;7.95;4.80;;;;;;;25.75;63.18;98811.00;5001073;28;20026;-60
2022/07/14 10:40:24;;;;;;;7.78;4.78;;;;;;;26.06;59.95;98815.03;5010411;28;20030;-59
2022/07/14 10:42:52;;;;;;;6.40;4.10;;;;;;;26.17;59.84;98808.81;5001453;28;20022;-59
2022/07/14 10:45:18;;;;;;;8.13;4.10;;;;;;;26.20;57.39;98800.34;4998983;28;20033;-60
2022/07/14 10:47:50;;;;;;;5.60;4.28;;;;;;;26.23;57.62;98777.72;4980088;28;20373;-59
2022/07/14 10:50:22;;;;;;;9.18;4.40;;;;;;;26.31;57.78;98785.31;4979116;28;20033;-59
2022/07/14 10:52:53;;;;;;;6.65;4.35;;;;;;;26.44;58.64;98762.84;5010998;28;20105;-59
2022/07/14 10:55:21;;;;;;;6.95;4.20;;;;;;;26.80;58.07;98790.06;5001933;28;20021;-60
2022/07/14 10:57:59;;;;;;;7.28;4.55;;;;;;;26.90;57.63;98800.06;4997274;28;20117;-59
2022/07/14 11:00:58;;;;;;;7.90;4.50;;;;;;;26.80;57.69;98788.19;5000983;28;20076;-60
2022/07/14 11:03:26;;;;;;;7.80;4.70;;;;;;;26.71;58.07;98792.34;5021013;28;20041;-59
2022/07/14 11:06:11;;;;;;;7.30;4.72;;;;;;;26.71;58.29;98787.00;4997175;28;20104;-59
2022/07/14 11:09:15;;;;;;;8.23;4.95;;;;;;;26.53;57.25;98780.06;5006581;28;20100;-59
2022/07/14 11:12:07;;;;;;;9.32;4.78;;;;;;;26.58;56.96;98776.66;5001275;28;20030;-60
2022/07/14 11:14:38;;;;;;;7.15;4.50;;;;;;;26.49;57.01;98736.28;4997919;28;20110;-59
2022/07/14 11:17:04;;;;;;;7.72;4.38;;;;;;;26.73;57.52;98776.09;5000232;28;20034;-59
2022/07/14 11:19:32;;;;;;;7.00;4.20;;;;;;;26.75;57.16;98766.78;4999787;28;20611;-60
2022/07/14 11:22:21;;;;;;;6.28;4.47;;;;;;;27.09;56.12;98766.69;4984400;28;20036;-61
2022/07/14 11:24:54;;;;;;;6.38;3.88;;;;;;;27.21;54.12;98726.50;4981839;28;20099;-59
2022/07/14 11:27:38;;;;;;;5.72;3.85;;;;;;;27.50;54.83;98761.00;4999664;28;20552;-61
2022/07/14 11:30:26;;;;;;;6.25;4.20;;;;;;;27.59;52.04;98759.50;5000809;28;20113;-61
2022/07/14 11:33:11;;;;;;;5.70;3.70;;;;;;;27.83;48.69;98748.50;4998732;28;20504;-61
2022/07/14 11:38:39;;;;;;;8.90;4.10;;;;;;;28.32;50.66;98735.78;5003393;28;20152;-60
2022/07/14 11:41:13;;;;;;;6.43;3.88;;;;;;;28.19;50.31;98741.59;5001412;28;20108;-60
2022/07/14 11:43:40;;;;;;;11.43;4.32;;;;;;;28.58;46.16;98737.84;4999581;28;20022;-60
2022/07/14 11:46:11;;;;;;;6.05;3.90;;;;;;;28.54;46.60;98702.78;4998944;28;20030;-59
2022/07/14 11:48:45;;;;;;;7.78;3.97;;;;;;;28.79;46.16;98734.22;5000614;28;20120;-60
2022/07/14 11:51:18;;;;;;;7.45;4.28;;;;;;;28.88;46.51;98724.59;4992797;28;20405;-59